Latest Weather Observations for Hay Point

IDQ60801

Issued at 1:37 am EST Thursday 20 December 2018 (issued every 10 minutes, with the page automatically refreshed every 10 minutes)

About weather observations | Map of weather stations | Latest weather observations for QLD | Other Formats
Station Details ID: 033317 Name: HAY POINT Lat: -21.29 Lon: 149.30 Height: 7.0 m
Data from the previous 72 hours. | See also: Recent months for locations in Queensland
Date/Time
EST
Temp
°C
App
Temp
°C
Dew
Point
°C
Rel
Hum
%
Delta-T
°C
Wind Press
QNH
hPa
Press
MSL
hPa
Rain since
9am
mm
Dir  Spd
km/h
Gust
km/h
Spd
kts
Gust
kts
20/01:30am - - - - - SE 22 30 12 16 - - -
20/01:00am - - - - - SE 26 32 14 17 - - -
20/12:30am - - - - - SE 22 32 12 17 - - -
20/12:00am - - - - - SE 28 33 15 18 - - -
 
Date/Time
EST
Temp
°C
App
Temp
°C
Dew
Point
°C
Rel
Hum
%
Delta-T
°C
Wind Press
QNH
hPa
Press
MSL
hPa
Rain since
9am
mm
Dir  Spd
km/h
Gust
km/h
Spd
kts
Gust
kts
19/11:30pm - - - - - SE 30 33 16 18 - - -
19/11:00pm - - - - - SE 30 39 16 21 - - -
19/10:30pm - - - - - SE 26 33 14 18 - - -
19/10:00pm - - - - - SE 30 37 16 20 - - -
19/09:30pm - - - - - SE 30 39 16 21 - - -
19/09:00pm - - - - - ESE 28 39 15 21 - - -
19/08:30pm - - - - - ESE 32 39 17 21 - - -
19/08:00pm - - - - - ESE 33 41 18 22 - - -
19/07:30pm - - - - - ESE 35 46 19 25 - - -
19/07:00pm - - - - - SE 35 43 19 23 - - -
19/06:30pm - - - - - SE 30 37 16 20 - - -
19/06:00pm - - - - - SE 30 37 16 20 - - -
19/05:30pm - - - - - SE 26 35 14 19 - - -
19/05:00pm - - - - - SE 28 37 15 20 - - -
19/04:30pm - - - - - SE 32 39 17 21 - - -
19/04:00pm - - - - - SE 26 33 14 18 - - -
19/03:30pm - - - - - SE 20 30 11 16 - - -
19/03:00pm - - - - - SE 20 30 11 16 - - -
19/02:30pm - - - - - SE 26 33 14 18 - - -
19/02:00pm - - - - - SE 24 33 13 18 - - -
19/01:30pm - - - - - SE 22 32 12 17 - - -
19/01:00pm - - - - - SE 30 33 16 18 - - -
19/12:30pm - - - - - SE 24 32 13 17 - - -
19/12:00pm - - - - - SE 26 33 14 18 - - -
19/11:30am - - - - - SSE 28 33 15 18 - - -
19/11:00am - - - - - SSE 30 35 16 19 - - -
19/10:30am - - - - - SSE 33 37 18 20 - - -
19/10:00am - - - - - SSE 35 43 19 23 - - -
19/09:30am - - - - - SSE 32 39 17 21 - - -
19/09:00am - - - - - SSE 28 35 15 19 - - -
19/08:30am - - - - - SSE 28 33 15 18 - - -
19/08:00am - - - - - S 26 33 14 18 - - -
19/07:30am - - - - - S 26 33 14 18 - - -
19/07:00am - - - - - SSE 22 30 12 16 - - -
19/06:30am - - - - - S 24 30 13 16 - - -
19/06:00am - - - - - S 22 28 12 15 - - -
19/05:30am - - - - - S 20 26 11 14 - - -
19/05:00am - - - - - SSE 26 33 14 18 - - -
19/04:30am - - - - - SSE 28 33 15 18 - - -
19/04:00am - - - - - SSE 28 35 15 19 - - -
19/03:30am - - - - - SSE 28 35 15 19 - - -
19/03:00am - - - - - SSE 22 33 12 18 - - -
19/02:30am - - - - - SSE 30 41 16 22 - - -
19/02:00am - - - - - S 20 35 11 19 - - -
19/01:30am - - - - - SSW 17 22 9 12 - - -
19/01:00am - - - - - SW 13 17 7 9 - - -
19/12:30am - - - - - SW 11 15 6 8 - - -
19/12:00am - - - - - SW 11 13 6 7 - - -
 
Date/Time
EST
Temp
°C
App
Temp
°C
Dew
Point
°C
Rel
Hum
%
Delta-T
°C
Wind Press
QNH
hPa
Press
MSL
hPa
Rain since
9am
mm
Dir  Spd
km/h
Gust
km/h
Spd
kts
Gust
kts
18/11:30pm - - - - - SSW 15 19 8 10 - - -
18/11:00pm - - - - - SSE 20 26 11 14 - - -
18/10:30pm - - - - - SSE 22 26 12 14 - - -
18/10:00pm - - - - - SSE 24 28 13 15 - - -
18/09:30pm - - - - - SE 22 28 12 15 - - -
18/09:00pm - - - - - SSE 24 28 13 15 - - -
18/08:30pm - - - - - ESE 26 32 14 17 - - -
18/08:00pm - - - - - ESE 30 35 16 19 - - -
18/07:30pm - - - - - ESE 24 26 13 14 - - -
18/07:00pm - - - - - E 28 30 15 16 - - -
18/06:30pm - - - - - ESE 32 39 17 21 - - -
18/06:00pm - - - - - ESE 22 33 12 18 - - -
18/05:30pm - - - - - SE 19 28 10 15 - - -
18/05:00pm - - - - - SE 24 32 13 17 - - -
18/04:30pm - - - - - SE 22 32 12 17 - - -
18/04:00pm - - - - - SE 28 35 15 19 - - -
18/03:30pm - - - - - SE 24 32 13 17 - - -
18/03:00pm - - - - - SE 24 32 13 17 - - -
18/02:30pm - - - - - SE 24 30 13 16 - - -
18/02:00pm - - - - - SE 20 28 11 15 - - -
18/01:30pm - - - - - SE 24 33 13 18 - - -
18/01:00pm - - - - - SE 32 37 17 20 - - -
18/12:30pm - - - - - SE 32 39 17 21 - - -
18/12:00pm - - - - - SSE 37 44 20 24 - - -
18/11:30am - - - - - SSE 37 44 20 24 - - -
18/11:00am - - - - - SSE 41 50 22 27 - - -
18/10:30am - - - - - SSE 37 48 20 26 - - -
18/10:00am - - - - - SSE 32 37 17 20 - - -
18/09:30am - - - - - SSE 33 41 18 22 - - -
18/09:00am - - - - - SSE 28 37 15 20 - - -
18/08:30am - - - - - S 32 41 17 22 - - -
18/08:00am - - - - - S 26 35 14 19 - - -
18/07:30am - - - - - S 26 33 14 18 - - -
18/07:00am - - - - - S 26 33 14 18 - - -
18/06:30am - - - - - SSW 22 30 12 16 - - -
18/06:00am - - - - - SSW 24 32 13 17 - - -
18/05:30am - - - - - SSW 20 30 11 16 - - -
18/05:00am - - - - - S 28 32 15 17 - - -
18/04:30am - - - - - S 28 35 15 19 - - -
18/04:00am - - - - - S 26 35 14 19 - - -
18/03:30am - - - - - S 24 28 13 15 - - -
18/03:00am - - - - - S 32 39 17 21 - - -
18/02:30am - - - - - S 26 33 14 18 - - -
18/02:00am - - - - - S 28 35 15 19 - - -
18/01:30am - - - - - S 30 37 16 20 - - -
18/01:00am - - - - - S 32 39 17 21 - - -
18/12:30am - - - - - S 30 37 16 20 - - -
18/12:00am - - - - - SSE 35 43 19 23 - - -
 
Date/Time
EST
Temp
°C
App
Temp
°C
Dew
Point
°C
Rel
Hum
%
Delta-T
°C
Wind Press
QNH
hPa
Press
MSL
hPa
Rain since
9am
mm
Dir  Spd
km/h
Gust
km/h
Spd
kts
Gust
kts
17/11:30pm - - - - - SSE 35 44 19 24 - - -
17/11:00pm - - - - - SSE 43 50 23 27 - - -
17/10:30pm - - - - - SSE 39 48 21 26 - - -
17/10:00pm - - - - - SSE 28 35 15 19 - - -
17/09:30pm - - - - - SSE 35 41 19 22 - - -
17/09:00pm - - - - - SE 35 41 19 22 - - -
17/08:30pm - - - - - SE 33 41 18 22 - - -
17/08:00pm - - - - - SSE 39 46 21 25 - - -
17/07:30pm - - - - - SSE 41 46 22 25 - - -
17/07:00pm - - - - - SSE 43 52 23 28 - - -
17/06:30pm - - - - - SSE 43 50 23 27 - - -
17/06:00pm - - - - - SSE 44 52 24 28 - - -
17/05:30pm - - - - - SSE 35 43 19 23 - - -
17/05:00pm - - - - - SSE 32 44 17 24 - - -
17/04:30pm - - - - - S 28 39 15 21 - - -
17/04:00pm - - - - - S 30 39 16 21 - - -
17/03:30pm - - - - - S 33 41 18 22 - - -
17/03:00pm - - - - - S 35 50 19 27 - - -
17/02:30pm - - - - - S 35 48 19 26 - - -
17/02:00pm - - - - - S 30 41 16 22 - - -
17/01:30pm - - - - - S 33 41 18 22 - - -
17/01:00pm - - - - - S 35 50 19 27 - - -
17/12:30pm - - - - - S 43 57 23 31 - - -
17/12:00pm - - - - - S 39 61 21 33 - - -
17/11:30am - - - - - S 44 59 24 32 - - -
17/11:08am - - - - - S 43 61 23 33 - - -
17/11:00am - - - - - S 44 61 24 33 - - -
17/10:40am - - - - - S 41 59 22 32 - - -
17/10:30am - - - - - S 41 57 22 31 - - -
17/10:00am - - - - - S 46 57 25 31 - - -
17/09:30am - - - - - S 43 57 23 31 - - -
17/09:11am - - - - - S 44 63 24 34 - - -
17/09:00am - - - - - S 43 52 23 28 - - -
17/08:30am - - - - - S 46 57 25 31 - - -
17/08:00am - - - - - S 44 59 24 32 - - -
17/07:30am - - - - - S 39 54 21 29 - - -
17/07:00am - - - - - SSW 37 48 20 26 - - -
17/06:30am - - - - - SSW 35 46 19 25 - - -
17/06:00am - - - - - SSW 35 44 19 24 - - -
17/05:30am - - - - - SSW 35 44 19 24 - - -
17/05:00am - - - - - S 37 48 20 26 - - -
17/04:30am - - - - - S 37 48 20 26 - - -
17/04:00am - - - - - S 37 46 20 25 - - -
17/03:30am - - - - - S 37 48 20 26 - - -
17/03:00am - - - - - S 35 41 19 22 - - -
17/02:30am - - - - - S 33 41 18 22 - - -
17/02:00am - - - - - S 32 37 17 20 - - -

Other Formats:

Comma delimited format used in spreadsheet applications
http://www.bom.gov.au/fwo/IDQ60801/IDQ60801.99367.axf

JavaScript Object Notation format (JSON) in row-major order
http://www.bom.gov.au/fwo/IDQ60801/IDQ60801.99367.json